KDLS

Columbia Gorge Regional / The Dalles Municipal Airport

The Dalles, Oregon, USA
KDLS 211732Z 2118/2218 32017G25KT P6SM FEW070 SCT100 SCT180 FM212100 32015G25KT P6SM SCT100 SCT200 FM220600 31008G18KT P6SM FEW200
Issued Valid From Valid To
Jun-21 @ 17:32 UTC
(40 minutes ago)
Jun-21 @ 18:00 UTC
(12 minutes ago)
Jun-22 @ 18:00 UTC
(in 24 hours)
Jun-21 @ 18:00 to Jun-21 @ 21:00
KDLS 211732Z 2118/2218 32017G25KT P6SM FEW070 SCT100 SCT180
Wind Visibility Clouds
320° at 17 knots
 Gusting to 25 knots
Greater than 6 miles
  • Few at 7,000' AGL
  • Scattered at 10,000' AGL
  • Scattered at 18,000' AGL
From Jun-21 @ 21:00 to Jun-22 @ 06:00
FM212100 32015G25KT P6SM SCT100 SCT200
Wind Visibility Clouds
320° at 15 knots
 Gusting to 25 knots
Greater than 6 miles
  • Scattered at 10,000' AGL
  • Scattered at 20,000' AGL
From Jun-22 @ 06:00 to Jun-22 @ 18:00
FM220600 31008G18KT P6SM FEW200
Wind Visibility Clouds
310° at 8 knots
 Gusting to 18 knots
Greater than 6 miles
  • Few at 20,000' AGL
KDLS 211732Z 2118/2218 32017G25KT P6SM FEW070 SCT100 SCT180 FM212100 32015G25KT P6SM SCT100 SCT200 FM220600 31008G18KT P6SM FEW200
Issued Jun-21 @ 17:32 UTC
(40 minutes ago)
Valid From Jun-21 @ 18:00 UTC
(12 minutes ago)
Valid To Jun-22 @ 18:00 UTC
(in 24 hours)
Jun-21 @ 18:00 - Jun-21 @ 21:00
Wind Visibility
320° at 17 knots
 Gusting to 25 knots
Greater than 6 miles
Clouds
  • Few at 7,000' AGL
  • Scattered at 10,000' AGL
  • Scattered at 18,000' AGL
From Jun-21 @ 21:00 - Jun-22 @ 06:00
Wind Visibility
320° at 15 knots
 Gusting to 25 knots
Greater than 6 miles
Clouds
  • Scattered at 10,000' AGL
  • Scattered at 20,000' AGL
From Jun-22 @ 06:00 - Jun-22 @ 18:00
Wind Visibility
310° at 8 knots
 Gusting to 18 knots
Greater than 6 miles
Clouds
  • Few at 20,000' AGL